createdAt,value
2017-02-15T00:00:03.053Z,0
2017-02-15T00:01:15.562Z,0
2017-02-15T00:02:29.273Z,0
2017-02-15T00:03:42.959Z,0
2017-02-15T00:04:56.059Z,0
2017-02-15T00:06:09.165Z,0
2017-02-15T00:07:22.292Z,0
2017-02-15T00:08:35.988Z,0
2017-02-15T00:09:49.098Z,0
2017-02-15T00:11:02.811Z,0
2017-02-15T00:12:16.507Z,0
2017-02-15T00:13:29.638Z,0
2017-02-15T00:14:42.770Z,0
2017-02-15T00:15:56.494Z,0
2017-02-15T00:17:09.590Z,0
2017-02-15T00:18:23.309Z,0
2017-02-15T00:19:37.013Z,0
2017-02-15T00:20:50.706Z,0
2017-02-15T00:22:03.794Z,0
2017-02-15T00:23:16.908Z,0
2017-02-15T00:24:30.628Z,0
2017-02-15T00:25:44.363Z,0
2017-02-15T00:26:57.480Z,0
2017-02-15T00:28:11.215Z,0
2017-02-15T00:29:24.903Z,0
2017-02-15T00:30:38.648Z,0
2017-02-15T00:31:52.431Z,0
2017-02-15T00:33:06.167Z,0
2017-02-15T00:34:19.891Z,0
2017-02-15T00:35:32.413Z,0
2017-02-15T00:36:46.126Z,0
2017-02-15T00:37:59.845Z,0
2017-02-15T00:39:13.615Z,0
2017-02-15T00:40:27.349Z,0
2017-02-15T00:41:41.075Z,0
2017-02-15T00:42:54.799Z,0
2017-02-15T00:44:08.518Z,0
2017-02-15T00:45:22.273Z,0
2017-02-15T00:46:36.039Z,0
2017-02-15T00:47:49.731Z,0
2017-02-15T00:49:03.423Z,0
2017-02-15T00:50:16.521Z,0
2017-02-15T00:51:30.221Z,0
2017-02-15T00:52:43.933Z,0
2017-02-15T00:53:57.662Z,0
2017-02-15T00:55:11.394Z,0
2017-02-15T00:56:25.073Z,0
2017-02-15T00:57:38.799Z,0
2017-02-15T00:58:52.531Z,0
2017-02-15T01:00:05.687Z,0
2017-02-15T01:01:18.798Z,0
2017-02-15T01:02:31.983Z,0
2017-02-15T01:03:45.699Z,0
2017-02-15T01:04:59.400Z,0
2017-02-15T01:06:13.128Z,0
2017-02-15T01:07:26.819Z,0
2017-02-15T01:08:40.609Z,0
2017-02-15T01:09:54.348Z,0
2017-02-15T01:11:08.058Z,0
2017-02-15T01:12:21.174Z,0
2017-02-15T01:13:34.281Z,0
2017-02-15T01:14:48.008Z,0
2017-02-15T01:16:01.761Z,0
2017-02-15T01:17:15.523Z,0
2017-02-15T01:18:28.632Z,0
2017-02-15T01:19:41.754Z,0
2017-02-15T01:20:55.495Z,0
2017-02-15T01:22:09.241Z,0
2017-02-15T01:23:22.919Z,0
2017-02-15T01:24:36.612Z,0
2017-02-15T01:25:49.764Z,0
2017-02-15T01:27:03.484Z,0
2017-02-15T01:28:15.398Z,0
2017-02-15T01:29:29.124Z,0
2017-02-15T01:30:42.863Z,0
2017-02-15T01:31:56.611Z,0
2017-02-15T01:33:10.346Z,0
2017-02-15T01:34:24.102Z,0
2017-02-15T01:35:37.810Z,0
2017-02-15T01:36:51.493Z,0
2017-02-15T01:38:05.202Z,0
2017-02-15T01:39:18.902Z,0
2017-02-15T01:40:32.620Z,0
2017-02-15T01:41:45.765Z,0
2017-02-15T01:42:59.437Z,0
2017-02-15T01:44:12.563Z,0
2017-02-15T01:45:26.245Z,0
2017-02-15T01:46:39.365Z,0
2017-02-15T01:47:53.117Z,0
2017-02-15T01:49:06.859Z,0
2017-02-15T01:50:20.574Z,0
2017-02-15T01:51:34.284Z,0
2017-02-15T01:52:47.985Z,0
2017-02-15T01:54:01.681Z,0
2017-02-15T01:55:15.397Z,0
2017-02-15T01:56:29.157Z,0
2017-02-15T01:57:42.272Z,0
2017-02-15T01:58:55.985Z,0
2017-02-15T02:00:09.146Z,0
2017-02-15T02:01:22.860Z,0
2017-02-15T02:02:35.968Z,0
2017-02-15T02:03:49.709Z,0
2017-02-15T02:05:03.379Z,0
2017-02-15T02:06:17.104Z,0
2017-02-15T02:07:30.798Z,0
2017-02-15T02:08:43.909Z,0
2017-02-15T02:09:57.015Z,0
2017-02-15T02:11:10.724Z,0
2017-02-15T02:12:24.463Z,0
2017-02-15T02:13:37.742Z,0
2017-02-15T02:14:51.459Z,0
2017-02-15T02:16:05.194Z,0
2017-02-15T02:17:18.908Z,0
2017-02-15T02:18:32.592Z,0
2017-02-15T02:19:46.272Z,0
2017-02-15T02:20:59.385Z,0
2017-02-15T02:22:12.508Z,0
2017-02-15T02:23:26.266Z,0
2017-02-15T02:24:40.016Z,0
2017-02-15T02:25:53.798Z,0
2017-02-15T02:27:07.544Z,0
2017-02-15T02:28:21.272Z,0
2017-02-15T02:29:35.014Z,0
2017-02-15T02:30:48.703Z,0
2017-02-15T02:32:02.429Z,0
2017-02-15T02:33:16.162Z,0
2017-02-15T02:34:29.872Z,0
2017-02-15T02:35:43.560Z,0
2017-02-15T02:36:57.314Z,0
2017-02-15T02:38:10.433Z,0
2017-02-15T02:39:24.167Z,0
2017-02-15T02:40:37.879Z,0
2017-02-15T02:41:51.593Z,0
2017-02-15T02:43:05.351Z,0
2017-02-15T02:44:18.462Z,0
2017-02-15T02:45:32.137Z,0
2017-02-15T02:46:45.853Z,0
2017-02-15T02:47:59.642Z,0
2017-02-15T02:49:13.366Z,0
2017-02-15T02:50:26.472Z,0
2017-02-15T02:51:39.631Z,0
2017-02-15T02:52:53.345Z,0
2017-02-15T02:54:07.079Z,0
2017-02-15T02:55:20.847Z,0
2017-02-15T02:56:34.593Z,0
2017-02-15T02:57:48.302Z,0
2017-02-15T02:59:02.020Z,0
2017-02-15T03:00:15.761Z,0
2017-02-15T03:01:28.867Z,0
2017-02-15T03:02:42.593Z,0
2017-02-15T03:03:56.336Z,0
2017-02-15T03:05:09.490Z,0
2017-02-15T03:06:23.221Z,0
2017-02-15T03:07:36.348Z,0
2017-02-15T03:08:50.038Z,0
2017-02-15T03:10:03.749Z,0
2017-02-15T03:11:17.460Z,0
2017-02-15T03:12:30.553Z,0
2017-02-15T03:13:44.273Z,0
2017-02-15T03:14:58.034Z,0
2017-02-15T03:16:11.173Z,0
2017-02-15T03:17:24.858Z,0
2017-02-15T03:18:37.343Z,0
2017-02-15T03:19:51.053Z,0
2017-02-15T03:21:04.753Z,0
2017-02-15T03:22:17.908Z,0
2017-02-15T03:23:31.645Z,0
2017-02-15T03:24:45.399Z,0
2017-02-15T03:25:58.500Z,0
2017-02-15T03:27:12.215Z,0
2017-02-15T03:28:25.940Z,0
2017-02-15T03:29:39.632Z,0
2017-02-15T03:30:53.340Z,0
2017-02-15T03:32:07.088Z,0
2017-02-15T03:33:20.808Z,0
2017-02-15T03:34:34.530Z,0
2017-02-15T03:35:47.658Z,0
2017-02-15T03:37:01.356Z,0
2017-02-15T03:38:14.473Z,0
2017-02-15T03:39:28.195Z,0
2017-02-15T03:40:41.939Z,0
2017-02-15T03:41:55.646Z,0
2017-02-15T03:43:09.355Z,0
2017-02-15T03:44:23.045Z,0
2017-02-15T03:45:36.741Z,0
2017-02-15T03:46:50.513Z,0
2017-02-15T03:48:04.232Z,0
2017-02-15T03:49:18.012Z,0
2017-02-15T03:50:31.677Z,0
2017-02-15T03:51:45.373Z,0
2017-02-15T03:52:59.139Z,0
2017-02-15T03:54:12.864Z,0
2017-02-15T03:55:26.001Z,0
2017-02-15T03:56:39.733Z,0
2017-02-15T03:57:53.429Z,0
2017-02-15T03:59:07.147Z,0
2017-02-15T04:00:20.266Z,0
2017-02-15T04:01:33.965Z,0
2017-02-15T04:02:47.659Z,0
2017-02-15T04:04:01.472Z,0
2017-02-15T04:05:15.209Z,0
2017-02-15T04:06:28.957Z,0
2017-02-15T04:07:42.711Z,0
2017-02-15T04:08:56.432Z,0
2017-02-15T04:10:10.100Z,0
2017-02-15T04:11:23.804Z,0
2017-02-15T04:12:36.979Z,0
2017-02-15T04:13:50.722Z,0
2017-02-15T04:15:04.419Z,0
2017-02-15T04:16:17.539Z,0
2017-02-15T04:17:31.298Z,0
2017-02-15T04:18:44.971Z,0
2017-02-15T04:19:58.673Z,0
2017-02-15T04:21:12.393Z,0
2017-02-15T04:22:25.479Z,0
2017-02-15T04:23:39.204Z,0
2017-02-15T04:24:52.909Z,0
2017-02-15T04:26:06.662Z,0
2017-02-15T04:27:20.411Z,0
2017-02-15T04:28:34.143Z,0
2017-02-15T04:29:47.855Z,0
2017-02-15T04:31:01.564Z,0
2017-02-15T04:32:14.696Z,0
2017-02-15T04:33:28.408Z,0
2017-02-15T04:34:42.173Z,0
2017-02-15T04:35:55.893Z,0
2017-02-15T04:37:09.628Z,0
2017-02-15T04:38:23.358Z,0
2017-02-15T04:39:37.075Z,0
2017-02-15T04:40:50.808Z,0
2017-02-15T04:42:04.503Z,0
2017-02-15T04:43:17.648Z,0
2017-02-15T04:44:31.354Z,0
2017-02-15T04:45:45.058Z,0
2017-02-15T04:46:58.761Z,0
2017-02-15T04:48:12.484Z,0
2017-02-15T04:49:26.222Z,0
2017-02-15T04:50:39.984Z,0
2017-02-15T04:51:53.103Z,0
2017-02-15T04:53:06.871Z,0
2017-02-15T04:54:20.581Z,0
2017-02-15T04:55:34.294Z,0
2017-02-15T04:56:48.046Z,0
2017-02-15T04:58:01.769Z,0
2017-02-15T04:59:15.478Z,0
2017-02-15T05:00:29.180Z,0
2017-02-15T05:01:42.921Z,0
2017-02-15T05:02:56.620Z,0
2017-02-15T05:04:10.351Z,0
2017-02-15T05:05:23.483Z,0
2017-02-15T05:06:37.211Z,0
2017-02-15T05:07:50.923Z,0
2017-02-15T05:09:04.630Z,0
2017-02-15T05:10:18.361Z,0
2017-02-15T05:11:32.071Z,0
2017-02-15T05:12:45.764Z,0
2017-02-15T05:13:59.536Z,0
2017-02-15T05:15:12.708Z,0
2017-02-15T05:16:26.474Z,0
2017-02-15T05:17:39.637Z,0
2017-02-15T05:18:52.801Z,0
2017-02-15T05:20:05.950Z,0
2017-02-15T05:21:18.455Z,0
2017-02-15T05:22:32.226Z,0
2017-02-15T05:23:45.949Z,0
2017-02-15T05:24:59.676Z,0
2017-02-15T05:26:12.773Z,0
2017-02-15T05:27:26.553Z,0
2017-02-15T05:28:39.679Z,0
2017-02-15T05:29:52.811Z,0
2017-02-15T05:31:06.582Z,0
2017-02-15T05:32:20.335Z,0
2017-02-15T05:33:34.028Z,0
2017-02-15T05:34:47.726Z,0
2017-02-15T05:36:01.475Z,0
2017-02-15T05:37:15.247Z,0
2017-02-15T05:38:28.950Z,0
2017-02-15T05:39:42.685Z,0
2017-02-15T05:40:55.837Z,0
2017-02-15T05:42:09.575Z,0
2017-02-15T05:43:22.704Z,0
2017-02-15T05:44:36.444Z,0
2017-02-15T05:45:49.560Z,0
2017-02-15T05:47:03.253Z,0
2017-02-15T05:48:16.983Z,0
2017-02-15T05:49:30.677Z,0
2017-02-15T05:50:44.390Z,0
2017-02-15T05:51:58.097Z,0
2017-02-15T05:53:11.835Z,0
2017-02-15T05:54:25.544Z,0
2017-02-15T05:55:39.319Z,0
2017-02-15T05:56:53.064Z,0
2017-02-15T05:58:06.827Z,0
2017-02-15T05:59:20.523Z,0
2017-02-15T06:00:33.655Z,0
2017-02-15T06:01:47.424Z,0
2017-02-15T06:03:01.136Z,0
2017-02-15T06:04:14.877Z,0
2017-02-15T06:05:28.621Z,0
2017-02-15T06:06:42.307Z,0
2017-02-15T06:07:55.987Z,0
2017-02-15T06:09:09.737Z,0
2017-02-15T06:10:22.286Z,0
2017-02-15T06:11:35.999Z,0
2017-02-15T06:12:49.751Z,0
2017-02-15T06:14:03.521Z,0
2017-02-15T06:15:16.088Z,0
2017-02-15T06:16:29.204Z,0
2017-02-15T06:17:42.892Z,0
2017-02-15T06:18:56.613Z,0
2017-02-15T06:20:09.719Z,0
2017-02-15T06:21:22.871Z,0
2017-02-15T06:22:36.588Z,0
2017-02-15T06:23:49.721Z,0
2017-02-15T06:25:03.439Z,0
2017-02-15T06:26:17.143Z,0
2017-02-15T06:27:30.893Z,0
2017-02-15T06:28:44.602Z,0
2017-02-15T06:29:57.119Z,0
2017-02-15T06:31:10.845Z,0
2017-02-15T06:32:24.547Z,0
2017-02-15T06:33:37.685Z,0
2017-02-15T06:34:51.578Z,0
2017-02-15T06:36:05.313Z,0
2017-02-15T06:37:17.292Z,0
2017-02-15T06:38:30.997Z,0
2017-02-15T06:39:44.711Z,0
2017-02-15T06:40:57.847Z,0
2017-02-15T06:42:10.356Z,0
2017-02-15T06:43:24.077Z,0
2017-02-15T06:44:37.808Z,0
2017-02-15T06:45:50.952Z,0
2017-02-15T06:47:08.186Z,0
2017-02-15T06:48:21.895Z,0
2017-02-15T06:49:35.866Z,0
2017-02-15T06:50:49.600Z,0
2017-02-15T06:52:04.038Z,0
2017-02-15T06:53:17.823Z,0
2017-02-15T06:54:32.171Z,0
2017-02-15T06:55:45.911Z,0
2017-02-15T06:56:59.718Z,0
2017-02-15T06:58:14.138Z,0
2017-02-15T06:59:28.555Z,0
2017-02-15T07:00:42.285Z,0
2017-02-15T07:01:56.664Z,0
2017-02-15T07:03:10.414Z,0
2017-02-15T07:04:24.152Z,0
2017-02-15T07:05:37.919Z,0
2017-02-15T07:06:52.366Z,0
2017-02-15T07:08:06.787Z,0
2017-02-15T07:09:19.955Z,0
2017-02-15T07:10:34.353Z,0
2017-02-15T07:11:48.731Z,0
2017-02-15T07:13:03.102Z,0
2017-02-15T07:14:17.492Z,0
2017-02-15T07:15:31.913Z,0
2017-02-15T07:16:46.268Z,0
2017-02-15T07:18:00.657Z,0
2017-02-15T07:19:15.074Z,0
2017-02-15T07:20:29.471Z,0
2017-02-15T07:21:43.865Z,0
2017-02-15T07:22:58.251Z,0
2017-02-15T07:24:11.988Z,0
2017-02-15T07:25:26.364Z,0
2017-02-15T07:26:40.756Z,0
2017-02-15T07:27:55.178Z,0
2017-02-15T07:29:09.577Z,0
2017-02-15T07:30:23.329Z,0
2017-02-15T07:31:37.056Z,0
2017-02-15T07:32:51.466Z,0
2017-02-15T07:34:05.855Z,0
2017-02-15T07:35:19.610Z,0
2017-02-15T07:36:33.377Z,0
2017-02-15T07:37:47.740Z,0
2017-02-15T07:39:01.519Z,0
2017-02-15T07:40:15.907Z,0
2017-02-15T07:41:30.299Z,0
2017-02-15T07:42:44.745Z,0
2017-02-15T07:43:58.499Z,0
2017-02-15T07:45:12.906Z,0
2017-02-15T07:46:27.338Z,0
2017-02-15T07:47:41.118Z,0
2017-02-15T07:48:55.502Z,0
2017-02-15T07:50:09.950Z,0
2017-02-15T07:51:23.680Z,0
2017-02-15T07:52:37.428Z,0
2017-02-15T07:53:51.241Z,0
2017-02-15T07:55:05.663Z,0
2017-02-15T07:56:19.464Z,0
2017-02-15T07:57:33.240Z,0
2017-02-15T07:58:47.665Z,0
2017-02-15T08:00:01.439Z,0
2017-02-15T08:01:15.842Z,0
2017-02-15T08:02:30.248Z,0
2017-02-15T08:03:44.658Z,0
2017-02-15T08:04:58.424Z,0
2017-02-15T08:06:12.825Z,0
2017-02-15T08:07:26.640Z,0
2017-02-15T08:08:40.410Z,0
2017-02-15T08:09:54.804Z,0
2017-02-15T08:11:09.255Z,0
2017-02-15T08:12:22.991Z,0
2017-02-15T08:13:37.385Z,0
2017-02-15T08:14:51.795Z,0
2017-02-15T08:16:06.189Z,0
2017-02-15T08:17:19.943Z,0
2017-02-15T08:18:34.350Z,0
2017-02-15T08:19:48.721Z,0
2017-02-15T08:21:03.103Z,0
2017-02-15T08:22:17.553Z,0
2017-02-15T08:23:31.972Z,0
2017-02-15T08:24:46.343Z,0
2017-02-15T08:26:00.724Z,4
2017-02-15T08:27:14.530Z,0
2017-02-15T08:28:28.931Z,4
2017-02-15T08:29:43.337Z,0
2017-02-15T08:30:57.734Z,4
2017-02-15T08:32:12.221Z,4
2017-02-15T08:33:26.640Z,8
2017-02-15T08:34:39.782Z,12
2017-02-15T08:35:54.192Z,16
2017-02-15T08:37:08.626Z,24
2017-02-15T08:38:23.088Z,28
2017-02-15T08:39:37.520Z,44
2017-02-15T08:40:51.930Z,60
2017-02-15T08:42:06.395Z,76
2017-02-15T08:43:19.488Z,104
2017-02-15T08:44:33.959Z,132
2017-02-15T08:45:47.745Z,172
2017-02-15T08:47:02.172Z,216
2017-02-15T08:48:16.698Z,268
2017-02-15T08:49:30.461Z,328
2017-02-15T08:50:44.224Z,400
2017-02-15T08:51:58.709Z,488
2017-02-15T08:53:13.114Z,576
2017-02-15T08:54:27.588Z,676
2017-02-15T08:55:42.028Z,788
2017-02-15T08:56:56.429Z,908
2017-02-15T08:58:10.215Z,1036
2017-02-15T08:59:24.674Z,1184
2017-02-15T09:00:39.097Z,1340
2017-02-15T09:01:52.224Z,1508
2017-02-15T09:03:06.640Z,1692
2017-02-15T09:04:21.027Z,1916
2017-02-15T09:05:35.448Z,2220
2017-02-15T09:06:49.878Z,2552
2017-02-15T09:08:04.360Z,2828
2017-02-15T09:09:18.805Z,3124
2017-02-15T09:10:32.634Z,3472
2017-02-15T09:11:47.031Z,3776
2017-02-15T09:13:01.487Z,4140
2017-02-15T09:14:15.342Z,4548
2017-02-15T09:15:29.813Z,4832
2017-02-15T09:16:44.206Z,5272
2017-02-15T09:17:58.641Z,5636
2017-02-15T09:19:13.206Z,6212
2017-02-15T09:20:26.976Z,6596
2017-02-15T09:21:41.379Z,6968
2017-02-15T09:22:55.188Z,7540
2017-02-15T09:24:09.696Z,8136
2017-02-15T09:25:23.561Z,8780
2017-02-15T09:26:37.320Z,9160
2017-02-15T09:27:51.800Z,9188
2017-02-15T09:29:06.237Z,10104
2017-02-15T09:30:20.091Z,11004
2017-02-15T09:31:34.641Z,11384
2017-02-15T09:32:49.094Z,12124
2017-02-15T09:34:03.586Z,12468
2017-02-15T09:35:17.421Z,13192
2017-02-15T09:36:32.004Z,13668
2017-02-15T09:37:46.443Z,14432
2017-02-15T09:39:00.897Z,15136
2017-02-15T09:40:15.346Z,15968
2017-02-15T09:41:29.285Z,16192
2017-02-15T09:42:43.792Z,16960
2017-02-15T09:43:58.226Z,17376
2017-02-15T09:45:12.795Z,18240
2017-02-15T09:46:26.793Z,19008
2017-02-15T09:47:40.609Z,19552
2017-02-15T09:48:54.412Z,20608
2017-02-15T09:50:08.318Z,21856
2017-02-15T09:51:20.961Z,22336
2017-02-15T09:52:35.384Z,22176
2017-02-15T09:53:49.844Z,24128
2017-02-15T09:55:03.689Z,24064
2017-02-15T09:56:17.581Z,24672
2017-02-15T09:57:32.028Z,25440
2017-02-15T09:58:46.450Z,26720
2017-02-15T10:00:00.204Z,27680
2017-02-15T10:01:14.038Z,28224
2017-02-15T10:02:28.486Z,29568
2017-02-15T10:03:43.038Z,30048
2017-02-15T10:04:57.521Z,30560
2017-02-15T10:06:11.315Z,31200
2017-02-15T10:07:25.919Z,32384
2017-02-15T10:08:39.731Z,32960
2017-02-15T10:09:54.227Z,33152
2017-02-15T10:11:08.665Z,34848
2017-02-15T10:12:21.909Z,34656
2017-02-15T10:13:36.532Z,37024
2017-02-15T10:14:51.050Z,37472
2017-02-15T10:16:05.035Z,39040
2017-02-15T10:17:18.504Z,39264
2017-02-15T10:18:32.379Z,41632
2017-02-15T10:19:46.965Z,41888
2017-02-15T10:21:01.455Z,42688
2017-02-15T10:22:15.423Z,43776
2017-02-15T10:23:29.883Z,44480
2017-02-15T10:24:44.364Z,45792
2017-02-15T10:25:58.983Z,45984
2017-02-15T10:27:13.580Z,49184
2017-02-15T10:28:28.118Z,46304
2017-02-15T10:29:42.775Z,46208
2017-02-15T10:30:56.704Z,48672
2017-02-15T10:32:11.281Z,50912
2017-02-15T10:33:24.530Z,50528
2017-02-15T10:34:39.168Z,52416
2017-02-15T10:35:53.641Z,51840
2017-02-15T10:37:08.275Z,55616
2017-02-15T10:38:22.165Z,56128
2017-02-15T10:39:36.055Z,56128
2017-02-15T10:40:50.625Z,54080
2017-02-15T10:42:04.600Z,56480
2017-02-15T10:43:18.531Z,57248
2017-02-15T10:44:33.268Z,60352
2017-02-15T10:45:47.825Z,59744
2017-02-15T10:47:02.465Z,60448
2017-02-15T10:48:17.087Z,60864
2017-02-15T10:49:31.648Z,62304
2017-02-15T10:50:44.875Z,60672
2017-02-15T10:51:59.508Z,62432
2017-02-15T10:53:14.020Z,63488
2017-02-15T10:54:28.210Z,63392
2017-02-15T10:55:42.746Z,64416
2017-02-15T10:56:57.374Z,65184
2017-02-15T10:58:10.774Z,62656
2017-02-15T10:59:24.707Z,64768
2017-02-15T11:00:39.265Z,64832
2017-02-15T11:01:53.874Z,64352
2017-02-15T11:03:08.504Z,68448
2017-02-15T11:04:23.105Z,65664
2017-02-15T11:05:37.305Z,64896
2017-02-15T11:06:51.856Z,67168
2017-02-15T11:08:06.436Z,68864
2017-02-15T11:09:20.960Z,67936
2017-02-15T11:10:35.497Z,66656
2017-02-15T11:11:49.479Z,70720
2017-02-15T11:13:03.581Z,70816
2017-02-15T11:14:18.265Z,68256
2017-02-15T11:15:32.849Z,68288
2017-02-15T11:16:47.588Z,69824
2017-02-15T11:18:02.158Z,72544
2017-02-15T11:19:16.924Z,78720
2017-02-15T11:20:31.691Z,78528
2017-02-15T11:21:46.312Z,78144
2017-02-15T11:23:01.077Z,77312
2017-02-15T11:24:15.070Z,81856
2017-02-15T11:25:29.833Z,77856
2017-02-15T11:26:44.439Z,81696
2017-02-15T11:27:58.897Z,78016
2017-02-15T11:29:12.692Z,73088
2017-02-15T11:30:26.821Z,80416
2017-02-15T11:31:41.627Z,77184
2017-02-15T11:32:56.139Z,71264
2017-02-15T11:34:10.729Z,71552
2017-02-15T11:35:24.710Z,78528
2017-02-15T11:36:38.784Z,77184
2017-02-15T11:37:53.442Z,65792
2017-02-15T11:39:08.041Z,67264
2017-02-15T11:40:22.622Z,71904
2017-02-15T11:41:37.205Z,91104
2017-02-15T11:42:51.691Z,82464
2017-02-15T11:44:05.654Z,72544
2017-02-15T11:45:20.299Z,71840
2017-02-15T11:46:34.934Z,77696
2017-02-15T11:47:49.592Z,78272
2017-02-15T11:49:04.089Z,65376
2017-02-15T11:50:17.975Z,50112
2017-02-15T11:51:32.556Z,52288
2017-02-15T11:52:47.190Z,55072
2017-02-15T11:54:13.977Z,59264
2017-02-15T11:55:28.668Z,69664
2017-02-15T11:56:44.859Z,66912
2017-02-15T11:57:59.514Z,67552
2017-02-15T11:59:13.598Z,75712
2017-02-15T12:00:27.519Z,76992
2017-02-15T12:01:42.134Z,79808
2017-02-15T12:02:56.737Z,81344
2017-02-15T12:04:10.754Z,81792
2017-02-15T12:05:25.454Z,82720
2017-02-15T12:06:47.772Z,79136
2017-02-15T12:08:02.298Z,83200
2017-02-15T12:09:16.426Z,92224
2017-02-15T12:10:31.115Z,91072
2017-02-15T12:11:45.772Z,91520
2017-02-15T12:13:00.320Z,104736
2017-02-15T12:14:14.186Z,107456
2017-02-15T12:15:28.996Z,104416
2017-02-15T12:16:43.656Z,110400
2017-02-15T12:17:58.504Z,95488
2017-02-15T12:19:13.014Z,96864
2017-02-15T12:20:27.675Z,111776
2017-02-15T12:21:42.249Z,107680
2017-02-15T12:22:57.124Z,94688
2017-02-15T12:24:11.870Z,99648
2017-02-15T12:25:26.483Z,102432
2017-02-15T12:26:41.133Z,106944
2017-02-15T12:27:55.766Z,100480
2017-02-15T12:29:09.150Z,90464
2017-02-15T12:30:23.065Z,93024
2017-02-15T12:31:37.544Z,99008
2017-02-15T12:32:52.043Z,98944
2017-02-15T12:34:06.650Z,98432
2017-02-15T12:35:20.953Z,96288
2017-02-15T12:36:34.956Z,100512
2017-02-15T12:37:49.568Z,97184
2017-02-15T12:39:04.273Z,102720
2017-02-15T12:40:18.375Z,103040
2017-02-15T12:41:32.947Z,104960
2017-02-15T12:42:47.548Z,98592
2017-02-15T12:44:02.120Z,103296
2017-02-15T12:45:15.988Z,102816
2017-02-15T12:46:30.906Z,102048
2017-02-15T12:47:45.562Z,100800
2017-02-15T12:49:00.392Z,98560
2017-02-15T12:50:16.627Z,104000
2017-02-15T12:51:31.218Z,101408
2017-02-15T12:52:45.786Z,103872
2017-02-15T12:54:00.318Z,106336
2017-02-15T12:55:15.059Z,107040
2017-02-15T12:56:29.072Z,105568
2017-02-15T12:57:43.006Z,101920
2017-02-15T12:58:59.232Z,100160
2017-02-15T13:00:13.186Z,96160
2017-02-15T13:01:27.941Z,98016
2017-02-15T13:02:42.691Z,104800
2017-02-15T13:03:56.941Z,106752
2017-02-15T13:05:11.132Z,103360
2017-02-15T13:06:25.743Z,101632
2017-02-15T13:07:40.451Z,108224
2017-02-15T13:08:54.942Z,112512
2017-02-15T13:10:09.294Z,111552
2017-02-15T13:11:24.242Z,110144
2017-02-15T13:12:38.261Z,109824
2017-02-15T13:13:53.351Z,115104
2017-02-15T13:15:07.303Z,118496
2017-02-15T13:16:21.857Z,117472
2017-02-15T13:17:35.100Z,115520
2017-02-15T13:18:49.613Z,112992
2017-02-15T13:20:04.909Z,116288
2017-02-15T13:21:18.501Z,114944
2017-02-15T13:22:33.211Z,113344
2017-02-15T13:23:47.977Z,115328
2017-02-15T13:25:02.500Z,111296
2017-02-15T13:26:16.568Z,111616
2017-02-15T13:27:31.263Z,122496
2017-02-15T13:28:46.128Z,120768
2017-02-15T13:30:00.654Z,122944
2017-02-15T13:31:15.340Z,120896
2017-02-15T13:32:30.002Z,116608
2017-02-15T13:33:44.903Z,103648
2017-02-15T13:34:59.505Z,103104
2017-02-15T13:36:13.523Z,122304
2017-02-15T13:37:28.164Z,119904
2017-02-15T13:38:42.207Z,116864
2017-02-15T13:39:56.870Z,121728
2017-02-15T13:41:10.797Z,125120
2017-02-15T13:42:25.696Z,127360
2017-02-15T13:43:40.432Z,127456
2017-02-15T13:44:55.083Z,127840
2017-02-15T13:46:09.635Z,129216
2017-02-15T13:47:23.652Z,128608
2017-02-15T13:48:37.562Z,131712
2017-02-15T13:49:51.690Z,138080
2017-02-15T13:51:06.272Z,137824
2017-02-15T13:52:22.446Z,137152
2017-02-15T13:53:37.035Z,140448
2017-02-15T13:54:51.620Z,141152
2017-02-15T13:56:05.531Z,139648
2017-02-15T13:57:20.381Z,122176
2017-02-15T13:58:34.977Z,112224
2017-02-15T13:59:49.870Z,111008
2017-02-15T14:01:03.887Z,129408
2017-02-15T14:02:18.607Z,150144
2017-02-15T14:03:32.857Z,151232
2017-02-15T14:04:47.647Z,153216
2017-02-15T14:06:02.073Z,149920
2017-02-15T14:07:16.554Z,144288
2017-02-15T14:08:29.747Z,149120
2017-02-15T14:09:43.712Z,150560
2017-02-15T14:10:58.425Z,145088
2017-02-15T14:12:14.687Z,151648
2017-02-15T14:13:29.831Z,147552
2017-02-15T14:14:44.359Z,141280
2017-02-15T14:16:01.519Z,145696
2017-02-15T14:17:15.276Z,144800
2017-02-15T14:18:29.766Z,139104
2017-02-15T14:19:43.000Z,130464
2017-02-15T14:20:57.141Z,110272
2017-02-15T14:22:11.170Z,73664
2017-02-15T14:23:25.896Z,145152
2017-02-15T14:24:40.540Z,144064
2017-02-15T14:25:54.426Z,144096
2017-02-15T14:27:08.341Z,137280
2017-02-15T14:28:22.839Z,137728
2017-02-15T14:29:36.851Z,132768
2017-02-15T14:30:51.527Z,132064
2017-02-15T14:32:05.691Z,129952
2017-02-15T14:33:20.312Z,127648
2017-02-15T14:34:35.070Z,80864
2017-02-15T14:35:51.359Z,117792
2017-02-15T14:37:05.273Z,142240
2017-02-15T14:38:19.339Z,139232
2017-02-15T14:39:34.013Z,143040
2017-02-15T14:40:47.912Z,145536
2017-02-15T14:42:01.856Z,138592
2017-02-15T14:43:16.781Z,131488
2017-02-15T14:44:30.776Z,116832
2017-02-15T14:45:44.732Z,134016
2017-02-15T14:47:00.479Z,142944
2017-02-15T14:48:14.452Z,121440
2017-02-15T14:49:28.720Z,136096
2017-02-15T14:50:42.705Z,40896
2017-02-15T14:51:57.421Z,36352
2017-02-15T14:53:12.046Z,35136
2017-02-15T14:54:26.808Z,33248
2017-02-15T14:55:39.992Z,32672
2017-02-15T14:56:54.832Z,32608
2017-02-15T14:58:10.428Z,33504
2017-02-15T14:59:24.251Z,36640
2017-02-15T15:00:38.158Z,98752
2017-02-15T15:01:52.190Z,147232
2017-02-15T15:03:07.027Z,46944
2017-02-15T15:04:21.817Z,41152
2017-02-15T15:05:38.273Z,38624
2017-02-15T15:06:53.264Z,37664
2017-02-15T15:08:08.162Z,37664
2017-02-15T15:09:22.155Z,36576
2017-02-15T15:10:36.819Z,37472
2017-02-15T15:11:51.478Z,38592
2017-02-15T15:13:05.451Z,38112
2017-02-15T15:14:20.080Z,38240
2017-02-15T15:15:34.842Z,36864
2017-02-15T15:16:49.460Z,35808
2017-02-15T15:18:03.413Z,34080
2017-02-15T15:19:16.794Z,33344
2017-02-15T15:20:30.862Z,33184
2017-02-15T15:21:45.496Z,34592
2017-02-15T15:23:00.039Z,36224
2017-02-15T15:24:14.633Z,38304
2017-02-15T15:25:28.695Z,38560
2017-02-15T15:26:43.602Z,36608
2017-02-15T15:27:58.451Z,35584
2017-02-15T15:29:12.322Z,35136
2017-02-15T15:30:26.913Z,35584
2017-02-15T15:31:44.864Z,36864
2017-02-15T15:32:59.634Z,38304
2017-02-15T15:34:14.251Z,40192
2017-02-15T15:35:28.788Z,43136
2017-02-15T15:36:43.390Z,46880
2017-02-15T15:37:58.190Z,141856
2017-02-15T15:39:12.714Z,145920
2017-02-15T15:40:27.206Z,152384
2017-02-15T15:41:41.059Z,92064
2017-02-15T15:42:55.655Z,108672
2017-02-15T15:44:09.552Z,120544
2017-02-15T15:45:24.410Z,140960
2017-02-15T15:46:38.941Z,48960
2017-02-15T15:47:53.809Z,142752
2017-02-15T15:49:08.426Z,86848
2017-02-15T15:50:22.854Z,122592
2017-02-15T15:51:37.392Z,52352
2017-02-15T15:52:52.186Z,40800
2017-02-15T15:54:06.812Z,40128
2017-02-15T15:55:20.829Z,109408
2017-02-15T15:56:35.482Z,37248
2017-02-15T15:57:49.524Z,35776
2017-02-15T15:59:04.427Z,35552
2017-02-15T16:00:19.031Z,34592
2017-02-15T16:01:33.059Z,33824
2017-02-15T16:02:48.023Z,33184
2017-02-15T16:04:06.515Z,33664
2017-02-15T16:05:20.543Z,33632
2017-02-15T16:06:35.081Z,35200
2017-02-15T16:07:49.631Z,37536
2017-02-15T16:09:04.401Z,39872
2017-02-15T16:10:19.213Z,40384
2017-02-15T16:11:33.654Z,39776
2017-02-15T16:12:48.360Z,40064
2017-02-15T16:14:03.090Z,43584
2017-02-15T16:15:21.458Z,103712
2017-02-15T16:16:35.458Z,49472
2017-02-15T16:17:49.388Z,48480
2017-02-15T16:19:04.350Z,118528
2017-02-15T16:20:18.326Z,66144
2017-02-15T16:21:33.676Z,48416
2017-02-15T16:22:48.514Z,45696
2017-02-15T16:24:03.970Z,46112
2017-02-15T16:25:20.411Z,51808
2017-02-15T16:26:35.234Z,49504
2017-02-15T16:27:50.163Z,49728
2017-02-15T16:29:03.496Z,50368
2017-02-15T16:30:16.912Z,94112
2017-02-15T16:31:31.525Z,123392
2017-02-15T16:32:46.204Z,83680
2017-02-15T16:33:59.517Z,117760
2017-02-15T16:35:13.417Z,125696
2017-02-15T16:36:27.402Z,128704
2017-02-15T16:37:41.572Z,129408
2017-02-15T16:38:56.104Z,133568
2017-02-15T16:40:09.571Z,102944
2017-02-15T16:41:24.595Z,104352
2017-02-15T16:42:39.125Z,70144
2017-02-15T16:43:56.969Z,105984
2017-02-15T16:45:11.802Z,50016
2017-02-15T16:46:25.950Z,50240
2017-02-15T16:47:40.680Z,71968
2017-02-15T16:48:55.453Z,111648
2017-02-15T16:50:10.554Z,89888
2017-02-15T16:51:26.494Z,116160
2017-02-15T16:52:41.085Z,112608
2017-02-15T16:53:55.594Z,76640
2017-02-15T16:55:10.214Z,81312
2017-02-15T16:56:24.720Z,86944
2017-02-15T16:57:39.393Z,41888